createdAt,value
2018-02-13T05:35:12.947Z,20.55
2018-02-13T05:37:41.970Z,20.00
2018-02-13T05:40:11.192Z,21.20
2018-02-13T05:42:41.510Z,23.12
2018-02-13T05:45:10.587Z,22.75
2018-02-13T05:47:39.681Z,21.77
2018-02-13T05:50:11.332Z,22.50
2018-02-13T05:52:40.677Z,22.00
2018-02-13T05:55:10.960Z,21.90
2018-02-13T05:57:41.560Z,22.77
2018-02-13T06:00:11.407Z,20.50
2018-02-13T06:02:40.607Z,22.30
2018-02-13T06:05:10.571Z,23.30
2018-02-13T06:07:40.032Z,26.10
2018-02-13T06:10:09.007Z,29.50
2018-02-13T06:12:38.222Z,35.67
2018-02-13T06:15:08.244Z,34.20
2018-02-13T06:17:37.373Z,53.35
2018-02-13T06:20:07.443Z,43.28
2018-02-13T06:22:36.661Z,30.33
2018-02-13T06:25:06.660Z,35.33
2018-02-13T06:27:35.793Z,35.60
2018-02-13T06:30:04.754Z,33.30
2018-02-13T06:32:33.871Z,31.27
2018-02-13T06:35:05.656Z,31.23
2018-02-13T06:37:36.113Z,28.40
2018-02-13T06:40:07.806Z,23.97
2018-02-13T06:42:36.893Z,26.43
2018-02-13T06:45:06.745Z,29.30
2018-02-13T06:47:36.682Z,27.37
2018-02-13T06:50:05.733Z,26.00
2018-02-13T06:52:34.793Z,23.10
2018-02-13T06:55:06.266Z,23.60
2018-02-13T06:57:35.466Z,23.80
2018-02-13T07:00:04.702Z,23.33
2018-02-13T07:02:35.316Z,20.40
2018-02-13T07:05:04.391Z,20.97
2018-02-13T07:07:33.391Z,20.50
2018-02-13T07:10:04.432Z,19.80
2018-02-13T07:12:34.386Z,19.40
2018-02-13T07:15:03.711Z,19.13
2018-02-13T07:17:35.203Z,20.97
2018-02-13T07:20:04.403Z,22.37
2018-02-13T07:22:33.491Z,21.07
2018-02-13T07:25:03.478Z,17.50
2018-02-13T07:27:33.222Z,19.93
2018-02-13T07:30:02.315Z,16.47
2018-02-13T07:32:33.835Z,15.10
2018-02-13T07:35:02.892Z,15.77
2018-02-13T07:37:32.090Z,17.60
2018-02-13T07:40:01.376Z,17.13
2018-02-13T07:42:30.456Z,16.00
2018-02-13T07:45:00.786Z,12.57
2018-02-13T07:47:31.936Z,15.37
2018-02-13T07:50:02.621Z,15.73
2018-02-13T07:52:31.656Z,15.00
2018-02-13T07:55:01.311Z,14.60
2018-02-13T07:57:30.367Z,15.17
2018-02-13T07:59:59.362Z,14.10
2018-02-13T08:02:28.651Z,14.87
2018-02-13T08:04:57.651Z,14.20
2018-02-13T08:07:26.645Z,28.00
2018-02-13T08:09:55.907Z,17.07
2018-02-13T08:12:24.934Z,15.27
2018-02-13T08:14:53.934Z,14.60
2018-02-13T08:17:24.563Z,18.57
2018-02-13T08:19:53.665Z,17.07
2018-02-13T08:22:22.655Z,15.33
2018-02-13T08:24:54.248Z,19.10
2018-02-13T08:27:24.058Z,14.30
2018-02-13T08:29:53.126Z,14.00
2018-02-13T08:32:23.448Z,15.13
2018-02-13T08:34:53.490Z,13.57
2018-02-13T08:37:22.516Z,14.40
2018-02-13T08:40:06.482Z,14.40
2018-02-13T08:42:35.587Z,11.77
2018-02-13T08:45:04.546Z,11.97
2018-02-13T08:47:34.372Z,13.50
2018-02-13T08:50:03.481Z,13.13
2018-02-13T08:52:32.512Z,15.00
2018-02-13T08:55:02.477Z,13.33
2018-02-13T08:57:31.487Z,12.17
2018-02-13T09:00:01.297Z,12.27
2018-02-13T09:02:30.421Z,15.33
2018-02-13T09:04:59.427Z,13.63
2018-02-13T09:07:28.571Z,12.97
2018-02-13T09:10:01.112Z,15.77
2018-02-13T09:12:30.061Z,17.10
2018-02-13T09:14:59.635Z,16.33
2018-02-13T09:17:28.761Z,16.10
2018-02-13T09:19:57.847Z,10.73
2018-02-13T09:22:26.853Z,12.57
2018-02-13T09:24:56.833Z,11.73
2018-02-13T09:27:25.832Z,11.23
2018-02-13T09:29:54.958Z,12.60
2018-02-13T09:32:24.192Z,14.67
2018-02-13T09:34:53.356Z,12.10
2018-02-13T09:37:22.556Z,11.20
2018-02-13T09:39:51.547Z,10.13
2018-02-13T09:42:20.545Z,10.67
2018-02-13T09:44:49.640Z,12.10
2018-02-13T09:47:18.674Z,11.47
2018-02-13T09:49:47.625Z,11.30
2018-02-13T09:52:17.036Z,11.20
2018-02-13T09:54:46.172Z,11.47
2018-02-13T09:57:15.148Z,10.20
2018-02-13T09:59:44.860Z,12.43
2018-02-13T10:02:15.065Z,11.20
2018-02-13T10:04:44.088Z,12.87
2018-02-13T10:07:13.176Z,11.33
2018-02-13T10:09:42.935Z,11.33
2018-02-13T10:12:12.972Z,12.70
2018-02-13T10:14:42.586Z,13.70
2018-02-13T10:17:11.712Z,13.07
2018-02-13T10:19:41.014Z,13.00
2018-02-13T10:22:10.908Z,10.60
2018-02-13T10:24:40.870Z,10.37
2018-02-13T10:27:10.151Z,10.93
2018-02-13T10:29:39.412Z,10.97
2018-02-13T10:32:08.508Z,12.20
2018-02-13T10:34:37.808Z,12.13
2018-02-13T10:37:06.992Z,13.43
2018-02-13T10:39:39.691Z,11.83
2018-02-13T10:42:08.852Z,11.23
2018-02-13T10:44:37.982Z,9.83
2018-02-13T10:47:06.978Z,11.70
2018-02-13T10:49:35.953Z,12.10
2018-02-13T10:52:04.971Z,10.00
2018-02-13T10:54:33.942Z,9.30
2018-02-13T10:57:02.931Z,9.90
2018-02-13T10:59:32.095Z,14.30
2018-02-13T11:02:09.252Z,13.40
2018-02-13T11:04:39.264Z,9.40
2018-02-13T11:07:08.351Z,8.83
2018-02-13T11:09:37.445Z,9.60
2018-02-13T11:12:06.507Z,9.93
2018-02-13T11:14:35.632Z,10.07
2018-02-13T11:17:07.293Z,12.27
2018-02-13T11:19:37.213Z,14.40
2018-02-13T11:22:06.207Z,11.43
2018-02-13T11:24:37.091Z,14.10
2018-02-13T11:27:06.016Z,14.93
2018-02-13T11:29:35.128Z,16.07
2018-02-13T11:32:05.591Z,9.97
2018-02-13T11:34:34.492Z,12.97
2018-02-13T11:37:04.771Z,22.43
2018-02-13T11:39:34.212Z,16.40
2018-02-13T11:42:03.273Z,16.10
2018-02-13T11:44:32.266Z,12.43
2018-02-13T11:47:02.695Z,12.90
2018-02-13T11:49:31.998Z,18.77
2018-02-13T11:52:00.986Z,13.50
2018-02-13T11:54:30.001Z,18.77
2018-02-13T11:56:59.016Z,20.90
2018-02-13T11:59:28.088Z,19.23
2018-02-13T12:01:57.173Z,9.80
2018-02-13T12:04:27.171Z,15.10
2018-02-13T12:06:59.109Z,14.17
2018-02-13T12:09:29.601Z,12.23
2018-02-13T12:11:58.636Z,10.27
2018-02-13T12:14:31.168Z,9.40
2018-02-13T12:17:01.020Z,9.40
2018-02-13T12:19:30.712Z,9.87
2018-02-13T12:21:59.692Z,9.97
2018-02-13T12:24:32.378Z,11.87
2018-02-13T12:27:02.286Z,10.97
2018-02-13T12:29:31.279Z,10.27
2018-02-13T12:32:00.250Z,10.97
2018-02-13T12:34:30.378Z,13.03
2018-02-13T12:36:59.285Z,9.97
2018-02-13T12:39:28.419Z,10.43
2018-02-13T12:42:01.158Z,12.63
2018-02-13T12:44:30.168Z,9.87
2018-02-13T12:46:59.693Z,12.13
2018-02-13T12:49:29.829Z,11.80
2018-02-13T12:51:59.716Z,9.83
2018-02-13T12:54:29.108Z,9.80
2018-02-13T12:56:59.434Z,11.63
2018-02-13T12:59:28.522Z,11.13
2018-02-13T13:01:57.833Z,10.83
2018-02-13T13:04:30.307Z,13.00
2018-02-13T13:06:59.400Z,9.97
2018-02-13T13:09:28.372Z,11.60
2018-02-13T13:11:58.917Z,26.13
2018-02-13T13:14:27.927Z,16.87
2018-02-13T13:16:56.911Z,12.70
2018-02-13T13:19:27.667Z,15.40
2018-02-13T13:21:56.747Z,10.57
2018-02-13T13:24:26.531Z,11.67
2018-02-13T13:26:57.631Z,10.37
2018-02-13T13:29:27.458Z,12.27
2018-02-13T13:31:56.714Z,11.40
2018-02-13T13:34:27.034Z,12.63
2018-02-13T13:36:56.133Z,14.50
2018-02-13T13:39:25.238Z,12.50
2018-02-13T13:41:56.179Z,12.10
2018-02-13T13:44:25.381Z,16.50
2018-02-13T13:46:54.363Z,11.40
2018-02-13T13:49:25.033Z,13.43
2018-02-13T13:51:54.895Z,12.00
2018-02-13T13:54:24.148Z,12.27
2018-02-13T13:56:54.191Z,12.60
2018-02-13T13:59:23.435Z,17.40
2018-02-13T14:01:53.592Z,15.03
2018-02-13T14:04:22.788Z,16.57
2018-02-13T14:06:51.849Z,14.47
2018-02-13T14:09:22.417Z,13.90
2018-02-13T14:11:52.705Z,14.07
2018-02-13T14:14:21.897Z,18.53
2018-02-13T14:16:52.730Z,17.67
2018-02-13T14:19:21.774Z,15.77
2018-02-13T14:21:51.366Z,14.93
2018-02-13T14:24:20.568Z,14.27
2018-02-13T14:26:54.558Z,13.40
2018-02-13T14:29:24.835Z,13.23
2018-02-13T14:31:54.787Z,14.90
2018-02-13T14:34:24.707Z,13.60
2018-02-13T14:36:53.838Z,13.67
2018-02-13T14:39:23.837Z,14.10
2018-02-13T14:41:52.928Z,12.33
2018-02-13T14:44:21.863Z,12.70
2018-02-13T14:46:52.642Z,12.00
2018-02-13T14:49:22.558Z,11.83
2018-02-13T14:51:53.085Z,12.03
2018-02-13T14:54:22.285Z,11.40
2018-02-13T14:56:53.017Z,11.47
2018-02-13T14:59:23.803Z,11.77
2018-02-13T15:01:52.852Z,20.40
2018-02-13T15:04:23.075Z,21.70
2018-02-13T15:06:55.185Z,20.43
2018-02-13T15:09:28.742Z,15.07
2018-02-13T15:11:57.816Z,13.50
2018-02-13T15:14:28.112Z,13.73
2018-02-13T15:17:01.839Z,13.37
2018-02-13T15:19:31.386Z,12.17
2018-02-13T15:22:02.161Z,12.80
2018-02-13T15:24:32.123Z,14.17
2018-02-13T15:27:14.016Z,12.87
2018-02-13T15:29:43.874Z,12.20
2018-02-13T15:32:13.253Z,11.73
2018-02-13T15:34:42.346Z,11.43
2018-02-13T15:37:24.532Z,11.73
2018-02-13T15:39:53.623Z,11.40
2018-02-13T15:42:22.813Z,11.83
2018-02-13T15:44:53.205Z,11.77
2018-02-13T15:47:26.900Z,11.50
2018-02-13T15:49:57.355Z,11.90
2018-02-13T15:52:27.198Z,12.47
2018-02-13T15:54:57.416Z,12.03
2018-02-13T15:57:27.176Z,11.07
2018-02-13T15:59:59.044Z,10.60
2018-02-13T16:02:30.591Z,12.13
2018-02-13T16:05:00.393Z,10.87
2018-02-13T16:07:29.490Z,11.87
2018-02-13T16:10:00.992Z,12.27
2018-02-13T16:12:30.002Z,11.20
2018-02-13T16:14:58.993Z,10.77
2018-02-13T16:17:29.658Z,10.50
2018-02-13T16:19:58.548Z,10.90
2018-02-13T16:22:27.512Z,9.70
2018-02-13T16:24:58.259Z,9.90
2018-02-13T16:27:27.340Z,10.57
2018-02-13T16:29:56.542Z,10.60
2018-02-13T16:32:26.531Z,10.07
2018-02-13T16:34:55.857Z,10.17
2018-02-13T16:37:25.862Z,11.53
2018-02-13T16:39:55.078Z,11.40
2018-02-13T16:42:24.285Z,11.80
2018-02-13T16:44:54.089Z,12.63
2018-02-13T16:47:23.861Z,11.80
2018-02-13T16:49:53.713Z,9.90
2018-02-13T16:52:22.817Z,10.93
2018-02-13T16:54:53.034Z,11.03
2018-02-13T16:57:22.641Z,12.50
2018-02-13T16:59:51.632Z,10.27
2018-02-13T17:02:21.431Z,9.80
2018-02-13T17:04:51.466Z,9.37
2018-02-13T17:07:20.493Z,9.83
2018-02-13T17:09:50.498Z,9.97
2018-02-13T17:12:21.214Z,12.03
2018-02-13T17:14:50.423Z,10.60
2018-02-13T17:17:19.715Z,8.93
2018-02-13T17:19:48.917Z,9.43
2018-02-13T17:22:17.972Z,9.63
2018-02-13T17:24:47.545Z,11.27
2018-02-13T17:27:16.521Z,10.20
2018-02-13T17:29:46.592Z,10.27
2018-02-13T17:32:18.861Z,9.40
2018-02-13T17:34:48.131Z,10.03
2018-02-13T17:37:19.311Z,9.73
2018-02-13T17:39:48.804Z,10.37
2018-02-13T17:42:17.822Z,10.03
2018-02-13T17:44:48.890Z,9.93
2018-02-13T17:47:17.977Z,10.57
2018-02-13T17:49:47.017Z,8.80
2018-02-13T17:52:17.051Z,9.80
2018-02-13T17:54:46.840Z,8.37
2018-02-13T17:57:15.845Z,9.07
2018-02-13T17:59:45.031Z,9.30
2018-02-13T18:02:15.532Z,8.50
2018-02-13T18:04:44.732Z,8.33
2018-02-13T18:07:15.462Z,8.90
2018-02-13T18:09:44.467Z,8.83
2018-02-13T18:12:13.962Z,8.70
2018-02-13T18:14:43.310Z,7.97
2018-02-13T18:17:13.292Z,8.93
2018-02-13T18:19:43.470Z,8.07
2018-02-13T18:22:12.645Z,9.10
2018-02-13T18:24:42.536Z,8.30
2018-02-13T18:27:12.667Z,8.73
2018-02-13T18:29:42.584Z,8.93
2018-02-13T18:32:11.960Z,13.70
2018-02-13T18:34:42.459Z,10.27
2018-02-13T18:37:13.500Z,9.80
2018-02-13T18:39:42.628Z,9.20
2018-02-13T18:42:12.597Z,7.97
2018-02-13T18:44:43.875Z,9.13
2018-02-13T18:47:13.189Z,9.30
2018-02-13T18:49:43.546Z,9.17
2018-02-13T18:54:44.468Z,9.40
2018-02-13T18:57:15.219Z,9.80
2018-02-13T18:59:44.328Z,9.77
2018-02-13T19:02:13.340Z,10.80
2018-02-13T19:04:44.158Z,8.43
2018-02-13T19:07:13.366Z,10.20
2018-02-13T19:09:43.437Z,9.30
2018-02-13T19:12:13.840Z,10.47
2018-02-13T19:14:42.846Z,10.60
2018-02-13T19:19:42.962Z,9.77
2018-02-13T19:22:11.880Z,10.30
2018-02-13T19:24:41.017Z,9.87
2018-02-13T19:27:12.019Z,11.30
2018-02-13T19:29:41.152Z,10.10
2018-02-13T19:32:10.415Z,10.23
2018-02-13T19:34:39.782Z,11.47
2018-02-13T19:37:08.855Z,9.50
2018-02-13T19:39:37.901Z,9.87
2018-02-13T19:42:07.934Z,10.40
2018-02-13T19:44:37.035Z,9.50
2018-02-13T19:47:07.263Z,9.60
2018-02-13T19:49:37.380Z,10.80
2018-02-13T19:52:06.685Z,10.00
2018-02-13T19:54:36.011Z,10.80
2018-02-13T19:57:06.258Z,9.50
2018-02-13T19:59:35.501Z,10.13
2018-02-13T20:02:05.138Z,10.93
2018-02-13T20:04:34.441Z,9.80
2018-02-13T20:07:03.654Z,9.60
2018-02-13T20:09:32.969Z,9.70
2018-02-13T20:12:02.141Z,8.80
2018-02-13T20:14:31.222Z,8.87
2018-02-13T20:17:01.646Z,9.10
2018-02-13T20:19:30.728Z,9.40
2018-02-13T20:21:59.813Z,9.33
2018-02-13T20:24:29.943Z,10.47
2018-02-13T20:26:59.167Z,9.77
2018-02-13T20:29:29.085Z,9.93
2018-02-13T20:31:58.256Z,10.03
2018-02-13T20:34:28.325Z,10.70
2018-02-13T20:36:57.366Z,11.67
2018-02-13T20:39:27.263Z,10.93
2018-02-13T20:41:58.225Z,9.73
2018-02-13T20:44:27.563Z,9.20
2018-02-13T20:46:57.167Z,10.70
2018-02-13T20:49:26.236Z,10.17
2018-02-13T20:51:55.466Z,9.47
2018-02-13T20:54:25.498Z,9.80
2018-02-13T20:56:56.184Z,10.03
2018-02-13T20:59:25.380Z,9.77
2018-02-13T21:01:54.927Z,9.97
2018-02-13T21:04:24.971Z,9.93
2018-02-13T21:06:54.800Z,9.80
2018-02-13T21:09:24.018Z,9.83
2018-02-13T21:11:59.181Z,9.60
2018-02-13T21:14:30.140Z,9.60
2018-02-13T21:17:01.919Z,9.10
2018-02-13T21:19:31.255Z,9.70
2018-02-13T21:22:00.356Z,10.20
2018-02-13T21:24:29.436Z,9.70
2018-02-13T21:26:58.980Z,10.57
2018-02-13T21:29:28.177Z,9.93
2018-02-13T21:31:57.454Z,9.40
2018-02-13T21:34:26.750Z,9.93
2018-02-13T21:36:56.001Z,9.80
2018-02-13T21:39:25.259Z,10.27
2018-02-13T21:41:54.195Z,9.90
2018-02-13T21:44:23.183Z,10.77
2018-02-13T21:46:52.382Z,9.67
2018-02-13T21:49:21.494Z,8.43
2018-02-13T21:51:51.456Z,9.60
2018-02-13T21:54:21.042Z,9.43
2018-02-13T21:56:51.131Z,10.30
2018-02-13T21:59:20.184Z,9.80
2018-02-13T22:01:52.791Z,10.80
2018-02-13T22:04:21.853Z,10.63
2018-02-13T22:06:51.907Z,10.13
2018-02-13T22:09:21.890Z,10.17
2018-02-13T22:11:53.674Z,11.40
2018-02-13T22:14:24.173Z,11.13
2018-02-13T22:16:54.397Z,13.50
2018-02-13T22:19:23.528Z,10.60
2018-02-13T22:21:54.472Z,10.57
2018-02-13T22:24:23.532Z,10.40
2018-02-13T22:26:52.522Z,10.33
2018-02-13T22:29:21.618Z,9.70
2018-02-13T22:31:50.820Z,10.70
2018-02-13T22:34:20.110Z,9.90
2018-02-13T22:36:49.322Z,11.63
2018-02-13T22:39:18.362Z,10.40
2018-02-13T22:44:45.057Z,9.77
2018-02-13T22:47:16.861Z,10.17
2018-02-13T22:49:46.138Z,11.10
2018-02-13T22:52:16.029Z,10.87
2018-02-13T22:54:47.521Z,10.30
2018-02-13T22:57:16.809Z,11.67
2018-02-13T22:59:46.146Z,10.80
2018-02-13T23:02:15.305Z,10.90
2018-02-13T23:04:45.831Z,10.50
2018-02-13T23:07:14.757Z,10.60
2018-02-13T23:09:46.100Z,11.17
2018-02-13T23:12:15.277Z,10.53
2018-02-13T23:14:44.371Z,9.90
2018-02-13T23:17:13.567Z,10.70
2018-02-13T23:19:42.875Z,9.80
2018-02-13T23:22:12.071Z,9.37
2018-02-13T23:24:41.915Z,10.43
2018-02-13T23:27:10.877Z,11.67
2018-02-13T23:29:41.687Z,9.07
2018-02-13T23:32:10.806Z,9.77
2018-02-13T23:34:40.826Z,10.00
2018-02-13T23:37:09.925Z,8.87
2018-02-13T23:39:39.423Z,9.80
2018-02-13T23:42:08.527Z,10.30
2018-02-13T23:44:37.707Z,10.87
2018-02-13T23:47:06.773Z,9.13
2018-02-13T23:49:35.917Z,9.30
2018-02-13T23:52:05.829Z,10.00
2018-02-13T23:54:35.653Z,9.60
2018-02-13T23:57:05.066Z,8.63
2018-02-13T23:59:34.419Z,8.50
